sensor_id;sensor_type;location;lat;lon;timestamp;pressure;altitude;pressure_sealevel;temperature;humidity
68889;BME280;55930;47.412;8.790;2023-02-02T00:01:07;95552.94;;;2.52;89.41
68889;BME280;55930;47.412;8.790;2023-02-02T00:04:32;95545.81;;;2.52;90.18
68889;BME280;55930;47.412;8.790;2023-02-02T00:07:55;95541.72;;;2.48;90.10
68889;BME280;55930;47.412;8.790;2023-02-02T00:11:17;95546.25;;;2.44;90.60
68889;BME280;55930;47.412;8.790;2023-02-02T00:14:37;95535.38;;;2.45;90.81
68889;BME280;55930;47.412;8.790;2023-02-02T00:17:58;95538.00;;;2.45;90.73
68889;BME280;55930;47.412;8.790;2023-02-02T00:21:18;95532.41;;;2.43;90.94
68889;BME280;55930;47.412;8.790;2023-02-02T00:24:38;95533.50;;;2.49;90.83
68889;BME280;55930;47.412;8.790;2023-02-02T00:28:01;95536.13;;;2.46;90.95
68889;BME280;55930;47.412;8.790;2023-02-02T00:31:22;95524.53;;;2.47;90.33
68889;BME280;55930;47.412;8.790;2023-02-02T00:34:42;95527.91;;;2.47;90.91
68889;BME280;55930;47.412;8.790;2023-02-02T00:38:05;95534.25;;;2.46;90.94
68889;BME280;55930;47.412;8.790;2023-02-02T00:41:25;95532.78;;;2.45;90.37
68889;BME280;55930;47.412;8.790;2023-02-02T00:44:46;95533.53;;;2.46;91.12
68889;BME280;55930;47.412;8.790;2023-02-02T00:48:25;95534.25;;;2.46;91.25
68889;BME280;55930;47.412;8.790;2023-02-02T00:51:46;95524.53;;;2.43;91.08
68889;BME280;55930;47.412;8.790;2023-02-02T00:55:07;95511.44;;;2.47;90.66
68889;BME280;55930;47.412;8.790;2023-02-02T00:58:27;95521.53;;;2.48;90.37
68889;BME280;55930;47.412;8.790;2023-02-02T01:01:48;95526.78;;;2.45;90.84
68889;BME280;55930;47.412;8.790;2023-02-02T01:05:10;95522.28;;;2.45;91.30
68889;BME280;55930;47.412;8.790;2023-02-02T01:08:31;95526.03;;;2.44;91.73
68889;BME280;55930;47.412;8.790;2023-02-02T01:11:51;95538.38;;;2.40;92.36
68889;BME280;55930;47.412;8.790;2023-02-02T01:15:12;95545.88;;;2.45;91.99
68889;BME280;55930;47.412;8.790;2023-02-02T01:18:33;95540.25;;;2.43;92.17
68889;BME280;55930;47.412;8.790;2023-02-02T01:21:55;95543.22;;;2.49;91.50
68889;BME280;55930;47.412;8.790;2023-02-02T01:25:16;95547.31;;;2.50;91.66
68889;BME280;55930;47.412;8.790;2023-02-02T01:28:37;95544.75;;;2.46;92.35
68889;BME280;55930;47.412;8.790;2023-02-02T01:31:58;95552.22;;;2.44;92.10
68889;BME280;55930;47.412;8.790;2023-02-02T01:35:18;95554.09;;;2.47;92.06
68889;BME280;55930;47.412;8.790;2023-02-02T01:38:38;95556.34;;;2.45;92.17
68889;BME280;55930;47.412;8.790;2023-02-02T01:41:59;95556.72;;;2.40;93.51
68889;BME280;55930;47.412;8.790;2023-02-02T01:45:26;95556.72;;;2.40;92.67
68889;BME280;55930;47.412;8.790;2023-02-02T01:49:10;95554.47;;;2.42;93.21
68889;BME280;55930;47.412;8.790;2023-02-02T01:52:37;95563.06;;;2.43;92.97
68889;BME280;55930;47.412;8.790;2023-02-02T01:56:00;95545.53;;;2.36;93.78
68889;BME280;55930;47.412;8.790;2023-02-02T01:59:21;95549.25;;;2.35;94.03
68889;BME280;55930;47.412;8.790;2023-02-02T02:02:45;95556.00;;;2.36;93.98
68889;BME280;55930;47.412;8.790;2023-02-02T02:06:14;95560.13;;;2.34;94.56
68889;BME280;55930;47.412;8.790;2023-02-02T02:09:35;95557.50;;;2.37;94.74
68889;BME280;55930;47.412;8.790;2023-02-02T02:12:56;95562.34;;;2.39;95.36
68889;BME280;55930;47.412;8.790;2023-02-02T02:24:31;95563.50;;;2.30;95.29
68889;BME280;55930;47.412;8.790;2023-02-02T02:35:30;95556.03;;;2.25;97.22
68889;BME280;55930;47.412;8.790;2023-02-02T02:42:25;95553.13;;;2.06;100.00
68889;BME280;55930;47.412;8.790;2023-02-02T02:45:48;95554.97;;;2.02;100.00
68889;BME280;55930;47.412;8.790;2023-02-02T02:49:10;95559.09;;;2.03;100.00
68889;BME280;55930;47.412;8.790;2023-02-02T02:52:33;95555.03;;;1.80;100.00
68889;BME280;55930;47.412;8.790;2023-02-02T02:59:46;95541.25;;;1.41;100.00
68889;BME280;55930;47.412;8.790;2023-02-02T03:07:16;95546.88;;;1.25;100.00
68889;BME280;55930;47.412;8.790;2023-02-02T03:10:43;95543.88;;;1.20;100.00
68889;BME280;55930;47.412;8.790;2023-02-02T03:14:05;95542.75;;;1.21;100.00
68889;BME280;55930;47.412;8.790;2023-02-02T03:17:28;95556.56;;;1.25;100.00
68889;BME280;55930;47.412;8.790;2023-02-02T03:20:49;95551.72;;;1.23;100.00
68889;BME280;55930;47.412;8.790;2023-02-02T03:24:09;95546.13;;;1.18;100.00
68889;BME280;55930;47.412;8.790;2023-02-02T03:27:30;95553.94;;;1.21;100.00
68889;BME280;55930;47.412;8.790;2023-02-02T03:30:51;95546.50;;;1.27;100.00
68889;BME280;55930;47.412;8.790;2023-02-02T03:34:12;95558.44;;;1.21;100.00
68889;BME280;55930;47.412;8.790;2023-02-02T03:37:36;95561.78;;;1.28;100.00
68889;BME280;55930;47.412;8.790;2023-02-02T03:40:56;95565.53;;;1.24;100.00
68889;BME280;55930;47.412;8.790;2023-02-02T03:44:17;95562.53;;;1.29;100.00
68889;BME280;55930;47.412;8.790;2023-02-02T03:47:37;95565.16;;;1.22;100.00
68889;BME280;55930;47.412;8.790;2023-02-02T03:50:58;95567.75;;;1.29;100.00
68889;BME280;55930;47.412;8.790;2023-02-02T03:54:18;95567.78;;;1.32;100.00
68889;BME280;55930;47.412;8.790;2023-02-02T03:57:38;95578.59;;;1.34;100.00
68889;BME280;55930;47.412;8.790;2023-02-02T04:01:04;95568.13;;;1.38;100.00
68889;BME280;55930;47.412;8.790;2023-02-02T04:04:24;95570.75;;;1.38;100.00
68889;BME280;55930;47.412;8.790;2023-02-02T04:07:47;95570.03;;;1.34;100.00
68889;BME280;55930;47.412;8.790;2023-02-02T04:11:09;95562.53;;;1.39;100.00
68889;BME280;55930;47.412;8.790;2023-02-02T04:14:29;95565.91;;;1.36;100.00
68889;BME280;55930;47.412;8.790;2023-02-02T04:17:52;95567.78;;;1.39;100.00
68889;BME280;55930;47.412;8.790;2023-02-02T04:21:12;95571.16;;;1.43;100.00
68889;BME280;55930;47.412;8.790;2023-02-02T04:24:33;95572.63;;;1.44;100.00
68889;BME280;55930;47.412;8.790;2023-02-02T04:27:56;95574.50;;;1.40;100.00
68889;BME280;55930;47.412;8.790;2023-02-02T04:31:16;95571.50;;;1.38;100.00
68889;BME280;55930;47.412;8.790;2023-02-02T04:34:37;95581.97;;;1.42;100.00
68889;BME280;55930;47.412;8.790;2023-02-02T04:37:57;95576.34;;;1.47;100.00
68889;BME280;55930;47.412;8.790;2023-02-02T04:41:18;95575.63;;;1.50;100.00
68889;BME280;55930;47.412;8.790;2023-02-02T04:44:41;95583.44;;;1.46;100.00
68889;BME280;55930;47.412;8.790;2023-02-02T04:48:04;95579.34;;;1.45;100.00
68889;BME280;55930;47.412;8.790;2023-02-02T04:51:25;95580.84;;;1.46;100.00
68889;BME280;55930;47.412;8.790;2023-02-02T04:54:45;95574.47;;;1.44;100.00
68889;BME280;55930;47.412;8.790;2023-02-02T04:58:06;95579.34;;;1.45;100.00
68889;BME280;55930;47.412;8.790;2023-02-02T05:01:26;95583.09;;;1.48;100.00
68889;BME280;55930;47.412;8.790;2023-02-02T05:04:50;95584.94;;;1.47;100.00
68889;BME280;55930;47.412;8.790;2023-02-02T05:08:11;95582.69;;;1.46;100.00
68889;BME280;55930;47.412;8.790;2023-02-02T05:11:33;95582.34;;;1.51;100.00
68889;BME280;55930;47.412;8.790;2023-02-02T05:14:54;95586.06;;;1.50;100.00
68889;BME280;55930;47.412;8.790;2023-02-02T05:18:14;95574.88;;;1.49;100.00
68889;BME280;55930;47.412;8.790;2023-02-02T05:21:38;95575.97;;;1.52;100.00
68889;BME280;55930;47.412;8.790;2023-02-02T05:24:58;95586.44;;;1.52;100.00
68889;BME280;55930;47.412;8.790;2023-02-02T05:28:22;95579.72;;;1.54;100.00
68889;BME280;55930;47.412;8.790;2023-02-02T05:31:44;95591.31;;;1.57;100.00
68889;BME280;55930;47.412;8.790;2023-02-02T05:35:05;95584.97;;;1.58;100.00
68889;BME280;55930;47.412;8.790;2023-02-02T05:38:26;95574.09;;;1.63;100.00
68889;BME280;55930;47.412;8.790;2023-02-02T05:41:46;95571.13;;;1.61;100.00
68889;BME280;55930;47.412;8.790;2023-02-02T05:45:07;95567.03;;;1.67;100.00
68889;BME280;55930;47.412;8.790;2023-02-02T05:48:27;95563.66;;;1.63;100.00
68889;BME280;55930;47.412;8.790;2023-02-02T05:51:54;95565.50;;;1.63;100.00
68889;BME280;55930;47.412;8.790;2023-02-02T05:55:16;95567.03;;;1.67;100.00
68889;BME280;55930;47.412;8.790;2023-02-02T05:58:37;95568.50;;;1.65;100.00
68889;BME280;55930;47.412;8.790;2023-02-02T06:01:58;95569.25;;;1.69;100.00
68889;BME280;55930;47.412;8.790;2023-02-02T06:05:18;95567.75;;;1.75;100.00
68889;BME280;55930;47.412;8.790;2023-02-02T06:08:38;95568.13;;;1.73;100.00
68889;BME280;55930;47.412;8.790;2023-02-02T06:11:59;95566.63;;;1.76;100.00
68889;BME280;55930;47.412;8.790;2023-02-02T06:15:19;95565.88;;;1.75;100.00
68889;BME280;55930;47.412;8.790;2023-02-02T06:18:40;95561.03;;;1.70;100.00
68889;BME280;55930;47.412;8.790;2023-02-02T06:22:00;95575.97;;;1.70;100.00
68889;BME280;55930;47.412;8.790;2023-02-02T06:25:21;95574.47;;;1.72;100.00
68889;BME280;55930;47.412;8.790;2023-02-02T06:28:42;95589.81;;;1.74;100.00
68889;BME280;55930;47.412;8.790;2023-02-02T06:32:02;95581.56;;;1.72;100.00
68889;BME280;55930;47.412;8.790;2023-02-02T06:35:23;95586.81;;;1.72;100.00
68889;BME280;55930;47.412;8.790;2023-02-02T06:38:47;95585.66;;;1.76;100.00
68889;BME280;55930;47.412;8.790;2023-02-02T06:42:08;95595.00;;;1.84;100.00
68889;BME280;55930;47.412;8.790;2023-02-02T06:45:31;95610.34;;;1.82;100.00
68889;BME280;55930;47.412;8.790;2023-02-02T06:48:51;95616.31;;;1.83;100.00
68889;BME280;55930;47.412;8.790;2023-02-02T06:52:12;95611.47;;;1.81;100.00
68889;BME280;55930;47.412;8.790;2023-02-02T06:55:35;95615.94;;;1.84;100.00
68889;BME280;55930;47.412;8.790;2023-02-02T06:58:58;95612.56;;;1.84;100.00
68889;BME280;55930;47.412;8.790;2023-02-02T07:02:26;95617.44;;;1.82;100.00
68889;BME280;55930;47.412;8.790;2023-02-02T07:05:53;95608.47;;;1.83;100.00
68889;BME280;55930;47.412;8.790;2023-02-02T07:09:14;95602.47;;;1.89;100.00
68889;BME280;55930;47.412;8.790;2023-02-02T07:12:37;95609.22;;;1.90;100.00
68889;BME280;55930;47.412;8.790;2023-02-02T07:15:58;95610.69;;;1.99;100.00
68889;BME280;55930;47.412;8.790;2023-02-02T07:19:18;95608.44;;;2.01;100.00
68889;BME280;55930;47.412;8.790;2023-02-02T07:22:39;95605.47;;;1.99;100.00
68889;BME280;55930;47.412;8.790;2023-02-02T07:26:07;95602.09;;;2.05;100.00
68889;BME280;55930;47.412;8.790;2023-02-02T07:29:28;95606.19;;;2.10;100.00
68889;BME280;55930;47.412;8.790;2023-02-02T07:32:49;95599.81;;;2.18;100.00
68889;BME280;55930;47.412;8.790;2023-02-02T07:36:11;95599.06;;;2.17;100.00
68889;BME280;55930;47.412;8.790;2023-02-02T07:39:32;95606.91;;;2.21;100.00
68889;BME280;55930;47.412;8.790;2023-02-02T07:42:52;95607.66;;;2.21;100.00
68889;BME280;55930;47.412;8.790;2023-02-02T07:46:13;95624.09;;;2.22;100.00
68889;BME280;55930;47.412;8.790;2023-02-02T07:49:33;95634.19;;;2.27;100.00
68889;BME280;55930;47.412;8.790;2023-02-02T07:52:54;95640.16;;;2.24;100.00
68889;BME280;55930;47.412;8.790;2023-02-02T07:56:24;95641.28;;;2.30;100.00
68889;BME280;55930;47.412;8.790;2023-02-02T07:59:45;95638.28;;;2.31;100.00
68889;BME280;55930;47.412;8.790;2023-02-02T08:03:08;95640.91;;;2.39;100.00
68889;BME280;55930;47.412;8.790;2023-02-02T08:06:32;95636.75;;;2.45;100.00
68889;BME280;55930;47.412;8.790;2023-02-02T08:09:53;95648.72;;;2.42;100.00
68889;BME280;55930;47.412;8.790;2023-02-02T08:13:13;95651.66;;;2.58;100.00
68889;BME280;55930;47.412;8.790;2023-02-02T08:16:34;95649.06;;;2.58;100.00
68889;BME280;55930;47.412;8.790;2023-02-02T08:19:54;95647.22;;;2.52;100.00
68889;BME280;55930;47.412;8.790;2023-02-02T08:23:15;95644.91;;;2.64;100.00
68889;BME280;55930;47.412;8.790;2023-02-02T08:26:35;95638.16;;;2.78;100.00
68889;BME280;55930;47.412;8.790;2023-02-02T08:29:58;95646.34;;;2.80;100.00
68889;BME280;55930;47.412;8.790;2023-02-02T08:33:21;95648.22;;;2.86;100.00
68889;BME280;55930;47.412;8.790;2023-02-02T08:36:42;95648.22;;;2.86;100.00
68889;BME280;55930;47.412;8.790;2023-02-02T08:40:03;95654.53;;;2.92;100.00
68889;BME280;55930;47.412;8.790;2023-02-02T08:43:23;95654.16;;;2.90;100.00
68889;BME280;55930;47.412;8.790;2023-02-02T08:46:44;95649.34;;;2.82;99.96
68889;BME280;55930;47.412;8.790;2023-02-02T08:50:04;95661.97;;;3.04;99.33
68889;BME280;55930;47.412;8.790;2023-02-02T08:53:26;95662.75;;;2.98;98.70
68889;BME280;55930;47.412;8.790;2023-02-02T08:56:46;95670.56;;;3.05;98.70
68889;BME280;55930;47.412;8.790;2023-02-02T09:00:07;95669.41;;;3.13;98.64
68889;BME280;55930;47.412;8.790;2023-02-02T09:03:28;95667.91;;;3.19;98.53
68889;BME280;55930;47.412;8.790;2023-02-02T09:06:53;95674.56;;;3.27;97.42
68889;BME280;55930;47.412;8.790;2023-02-02T09:10:13;95674.09;;;3.46;97.55
68889;BME280;55930;47.412;8.790;2023-02-02T09:13:35;95674.50;;;3.41;96.90
68889;BME280;55930;47.412;8.790;2023-02-02T09:16:58;95677.81;;;3.53;96.47
68889;BME280;55930;47.412;8.790;2023-02-02T09:20:20;95669.13;;;3.63;96.17
68889;BME280;55930;47.412;8.790;2023-02-02T09:23:42;95663.50;;;3.61;96.49
68889;BME280;55930;47.412;8.790;2023-02-02T09:27:03;95657.47;;;3.67;95.06
68889;BME280;55930;47.412;8.790;2023-02-02T09:30:23;95662.31;;;3.72;95.51
68889;BME280;55930;47.412;8.790;2023-02-02T09:33:44;95670.81;;;3.87;93.85
68889;BME280;55930;47.412;8.790;2023-02-02T09:37:05;95666.38;;;3.77;94.62
68889;BME280;55930;47.412;8.790;2023-02-02T09:40:25;95658.81;;;3.86;94.08
68889;BME280;55930;47.412;8.790;2023-02-02T09:47:45;95662.97;;;3.83;93.90
68889;BME280;55930;47.412;8.790;2023-02-02T09:51:18;95683.25;;;3.76;93.44
68889;BME280;55930;47.412;8.790;2023-02-02T09:54:51;95701.97;;;3.81;93.40
68889;BME280;55930;47.412;8.790;2023-02-02T10:01:44;95714.84;;;3.65;93.66
68889;BME280;55930;47.412;8.790;2023-02-02T10:05:20;95734.34;;;3.61;93.52
68889;BME280;55930;47.412;8.790;2023-02-02T10:08:45;95736.47;;;3.80;93.93
68889;BME280;55930;47.412;8.790;2023-02-02T10:12:40;95746.22;;;3.79;93.64
68889;BME280;55930;47.412;8.790;2023-02-02T10:16:15;95743.22;;;3.81;93.95
68889;BME280;55930;47.412;8.790;2023-02-02T10:19:39;95760.53;;;3.68;93.14
68889;BME280;55930;47.412;8.790;2023-02-02T10:23:11;95763.06;;;3.85;93.82
68889;BME280;55930;47.412;8.790;2023-02-02T10:26:39;95755.81;;;4.04;93.13
68889;BME280;55930;47.412;8.790;2023-02-02T10:30:17;95754.19;;;4.20;92.44
68889;BME280;55930;47.412;8.790;2023-02-02T10:33:39;95746.75;;;4.12;91.84
68889;BME280;55930;47.412;8.790;2023-02-02T10:37:16;95751.94;;;4.19;91.92
68889;BME280;55930;47.412;8.790;2023-02-02T10:45:31;95733.56;;;4.19;91.58
68889;BME280;55930;47.412;8.790;2023-02-02T10:48:34;95742.91;;;4.23;90.97
68889;BME280;55930;47.412;8.790;2023-02-02T10:55:38;95762.56;;;4.49;91.46
68889;BME280;55930;47.412;8.790;2023-02-02T10:59:09;95754.59;;;4.15;91.66
68889;BME280;55930;47.412;8.790;2023-02-02T11:02:31;95750.50;;;4.14;91.70
68889;BME280;55930;47.412;8.790;2023-02-02T11:05:52;95741.25;;;4.40;91.87
68889;BME280;55930;47.412;8.790;2023-02-02T11:09:34;95726.06;;;4.62;89.95
68889;BME280;55930;47.412;8.790;2023-02-02T11:12:59;95726.50;;;4.91;88.73
68889;BME280;55930;47.412;8.790;2023-02-02T11:16:22;95717.22;;;4.79;89.40
68889;BME280;55930;47.412;8.790;2023-02-02T11:19:43;95717.22;;;4.79;88.48
68889;BME280;55930;47.412;8.790;2023-02-02T11:23:04;95713.44;;;4.84;88.69
68889;BME280;55930;47.412;8.790;2023-02-02T11:27:37;95716.28;;;4.96;89.13
68889;BME280;55930;47.412;8.790;2023-02-02T11:30:32;95707.81;;;4.82;88.27
68889;BME280;55930;47.412;8.790;2023-02-02T11:34:24;95711.88;;;4.90;88.57
68889;BME280;55930;47.412;8.790;2023-02-02T11:37:57;95705.94;;;4.82;88.08
68889;BME280;55930;47.412;8.790;2023-02-02T11:41:21;95711.50;;;4.88;88.25
68889;BME280;55930;47.412;8.790;2023-02-02T11:44:58;95717.56;;;4.85;89.22
68889;BME280;55930;47.412;8.790;2023-02-02T11:48:21;95735.03;;;5.02;88.66
68889;BME280;55930;47.412;8.790;2023-02-02T11:51:42;95732.22;;;4.86;89.43
68889;BME280;55930;47.412;8.790;2023-02-02T11:55:09;95728.25;;;4.71;89.10
68889;BME280;55930;47.412;8.790;2023-02-02T11:58:44;95717.13;;;4.90;88.22
68889;BME280;55930;47.412;8.790;2023-02-02T12:05:35;95720.41;;;4.97;87.83
68889;BME280;55930;47.412;8.790;2023-02-02T12:09:01;95714.66;;;4.76;87.97
68889;BME280;55930;47.412;8.790;2023-02-02T12:12:44;95713.34;;;4.94;88.64
68889;BME280;55930;47.412;8.790;2023-02-02T12:34:36;95682.66;;;4.84;88.04
68889;BME280;55930;47.412;8.790;2023-02-02T12:42:24;95678.13;;;5.15;87.52
68889;BME280;55930;47.412;8.790;2023-02-02T12:56:46;95684.28;;;5.05;87.44
68889;BME280;55930;47.412;8.790;2023-02-02T13:00:29;95682.19;;;4.89;88.72
68889;BME280;55930;47.412;8.790;2023-02-02T13:07:55;95693.88;;;5.19;86.55
68889;BME280;55930;47.412;8.790;2023-02-02T13:11:41;95693.63;;;5.10;85.99
68889;BME280;55930;47.412;8.790;2023-02-02T13:15:06;95680.44;;;5.40;84.95
68889;BME280;55930;47.412;8.790;2023-02-02T13:18:33;95682.38;;;5.36;85.04
68889;BME280;55930;47.412;8.790;2023-02-02T13:21:56;95687.63;;;5.36;86.18
68889;BME280;55930;47.412;8.790;2023-02-02T13:25:27;95686.00;;;5.19;87.11
68889;BME280;55930;47.412;8.790;2023-02-02T13:29:06;95686.72;;;5.19;86.27
68889;BME280;55930;47.412;8.790;2023-02-02T13:32:38;95684.28;;;5.05;86.44
68889;BME280;55930;47.412;8.790;2023-02-02T13:36:25;95676.78;;;5.04;85.55
68889;BME280;55930;47.412;8.790;2023-02-02T13:47:24;95670.25;;;5.15;84.79
68889;BME280;55930;47.412;8.790;2023-02-02T14:01:37;95695.31;;;5.23;86.40
68889;BME280;55930;47.412;8.790;2023-02-02T14:05:00;95702.09;;;5.21;86.44
68889;BME280;55930;47.412;8.790;2023-02-02T14:08:23;95704.09;;;5.13;86.56
68889;BME280;55930;47.412;8.790;2023-02-02T14:11:53;95704.91;;;5.07;87.00
68889;BME280;55930;47.412;8.790;2023-02-02T14:15:16;95718.50;;;5.02;87.00
68889;BME280;55930;47.412;8.790;2023-02-02T14:22:18;95717.78;;;4.97;87.05
68889;BME280;55930;47.412;8.790;2023-02-02T14:29:02;95719.75;;;4.90;86.68
68889;BME280;55930;47.412;8.790;2023-02-02T14:39:10;95720.88;;;4.92;86.26
68889;BME280;55930;47.412;8.790;2023-02-02T14:46:44;95742.94;;;4.98;85.88
68889;BME280;55930;47.412;8.790;2023-02-02T14:50:13;95744.53;;;4.92;86.20
68889;BME280;55930;47.412;8.790;2023-02-02T14:53:37;95751.28;;;4.93;87.63
68889;BME280;55930;47.412;8.790;2023-02-02T14:57:03;95757.38;;;4.83;86.19
68889;BME280;55930;47.412;8.790;2023-02-02T15:00:29;95752.50;;;4.82;85.33
68889;BME280;55930;47.412;8.790;2023-02-02T15:10:58;95767.25;;;4.72;85.52
68889;BME280;55930;47.412;8.790;2023-02-02T15:14:20;95780.84;;;4.63;84.87
68889;BME280;55930;47.412;8.790;2023-02-02T15:17:47;95782.69;;;4.67;84.69
68889;BME280;55930;47.412;8.790;2023-02-02T15:21:18;95782.34;;;4.65;85.34
68889;BME280;55930;47.412;8.790;2023-02-02T15:24:46;95792.50;;;4.63;85.31
68889;BME280;55930;47.412;8.790;2023-02-02T15:28:17;95795.84;;;4.63;85.38
68889;BME280;55930;47.412;8.790;2023-02-02T15:31:51;95798.56;;;4.56;85.32
68889;BME280;55930;47.412;8.790;2023-02-02T15:35:19;95800.78;;;4.57;85.25
68889;BME280;55930;47.412;8.790;2023-02-02T15:38:42;95801.25;;;4.49;86.16
68889;BME280;55930;47.412;8.790;2023-02-02T15:42:17;95808.75;;;4.50;86.42
68889;BME280;55930;47.412;8.790;2023-02-02T15:46:08;95795.97;;;4.49;85.76
68889;BME280;55930;47.412;8.790;2023-02-02T15:49:31;95803.19;;;4.41;86.28
68889;BME280;55930;47.412;8.790;2023-02-02T15:52:54;95810.28;;;4.44;85.79
68889;BME280;55930;47.412;8.790;2023-02-02T15:59:46;95788.97;;;4.39;85.62
68889;BME280;55930;47.412;8.790;2023-02-02T16:03:13;95787.06;;;4.39;86.12
68889;BME280;55930;47.412;8.790;2023-02-02T16:06:34;95794.25;;;4.32;86.66
68889;BME280;55930;47.412;8.790;2023-02-02T16:09:55;95798.38;;;4.33;86.91
68889;BME280;55930;47.412;8.790;2023-02-02T16:13:24;95802.16;;;4.24;87.69
68889;BME280;55930;47.412;8.790;2023-02-02T16:16:46;95801.41;;;4.28;87.34
68889;BME280;55930;47.412;8.790;2023-02-02T16:20:11;95801.41;;;4.28;86.88
68889;BME280;55930;47.412;8.790;2023-02-02T16:23:34;95813.03;;;4.27;87.03
68889;BME280;55930;47.412;8.790;2023-02-02T16:26:58;95813.81;;;4.23;87.26
68889;BME280;55930;47.412;8.790;2023-02-02T16:33:47;95834.81;;;4.23;87.73
68889;BME280;55930;47.412;8.790;2023-02-02T16:37:15;95845.03;;;4.14;88.80
68889;BME280;55930;47.412;8.790;2023-02-02T16:40:36;95857.03;;;4.08;90.30
68889;BME280;55930;47.412;8.790;2023-02-02T16:55:32;95867.50;;;4.15;88.77
68889;BME280;55930;47.412;8.790;2023-02-02T16:58:54;95861.53;;;4.11;89.00
68889;BME280;55930;47.412;8.790;2023-02-02T17:05:49;95870.53;;;4.10;88.76
68889;BME280;55930;47.412;8.790;2023-02-02T17:09:25;95870.53;;;4.14;88.63
68889;BME280;55930;47.412;8.790;2023-02-02T17:12:47;95859.63;;;4.15;88.57
68889;BME280;55930;47.412;8.790;2023-02-02T17:16:13;95869.00;;;4.16;88.41
68889;BME280;55930;47.412;8.790;2023-02-02T17:19:35;95869.41;;;4.15;88.28
68889;BME280;55930;47.412;8.790;2023-02-02T17:23:06;95864.88;;;4.15;88.88
68889;BME280;55930;47.412;8.790;2023-02-02T17:26:29;95874.63;;;4.18;88.50
68889;BME280;55930;47.412;8.790;2023-02-02T17:29:52;95876.13;;;4.16;88.43
68889;BME280;55930;47.412;8.790;2023-02-02T17:33:16;95876.50;;;4.18;88.09
68889;BME280;55930;47.412;8.790;2023-02-02T17:36:37;95873.91;;;4.14;89.25
68889;BME280;55930;47.412;8.790;2023-02-02T17:39:57;95888.16;;;4.13;88.56
68889;BME280;55930;47.412;8.790;2023-02-02T17:43:18;95891.13;;;4.15;88.89
68889;BME280;55930;47.412;8.790;2023-02-02T17:46:38;95893.00;;;4.18;87.47
68889;BME280;55930;47.412;8.790;2023-02-02T17:49:59;95887.41;;;4.13;88.25
68889;BME280;55930;47.412;8.790;2023-02-02T17:53:20;95893.75;;;4.15;88.17
68889;BME280;55930;47.412;8.790;2023-02-02T17:56:42;95895.25;;;4.20;86.96
68889;BME280;55930;47.412;8.790;2023-02-02T18:00:03;95896.75;;;4.17;87.24
68889;BME280;55930;47.412;8.790;2023-02-02T18:03:28;95901.25;;;4.17;87.78
68889;BME280;55930;47.412;8.790;2023-02-02T18:06:51;95902.00;;;4.17;86.52
68889;BME280;55930;47.412;8.790;2023-02-02T18:10:13;95910.63;;;4.18;86.70
68889;BME280;55930;47.412;8.790;2023-02-02T18:13:34;95902.38;;;4.19;86.06
68889;BME280;55930;47.412;8.790;2023-02-02T18:16:54;95893.03;;;4.15;87.08
68889;BME280;55930;47.412;8.790;2023-02-02T18:20:16;95894.91;;;4.14;86.95
68889;BME280;55930;47.412;8.790;2023-02-02T18:23:36;95894.53;;;4.12;87.32
68889;BME280;55930;47.412;8.790;2023-02-02T18:26:57;95896.78;;;4.14;86.69
68889;BME280;55930;47.412;8.790;2023-02-02T18:30:18;95901.69;;;4.08;88.86
68889;BME280;55930;47.412;8.790;2023-02-02T18:33:43;95912.56;;;4.10;88.40
68889;BME280;55930;47.412;8.790;2023-02-02T18:37:03;95908.84;;;4.04;89.48
68889;BME280;55930;47.412;8.790;2023-02-02T18:40:24;95905.88;;;3.99;89.64
68889;BME280;55930;47.412;8.790;2023-02-02T18:43:44;95898.34;;;4.04;88.68
68889;BME280;55930;47.412;8.790;2023-02-02T18:47:04;95903.59;;;4.04;89.03
68889;BME280;55930;47.412;8.790;2023-02-02T18:50:27;95903.22;;;4.02;89.23
68889;BME280;55930;47.412;8.790;2023-02-02T18:53:48;95915.22;;;4.00;89.82
68889;BME280;55930;47.412;8.790;2023-02-02T18:57:10;95923.88;;;3.97;89.86
68889;BME280;55930;47.412;8.790;2023-02-02T19:00:33;95904.03;;;3.89;91.26
68889;BME280;55930;47.412;8.790;2023-02-02T19:03:54;95894.63;;;3.91;90.56
68889;BME280;55930;47.412;8.790;2023-02-02T19:07:18;95879.63;;;3.92;89.89
68889;BME280;55930;47.412;8.790;2023-02-02T19:11:11;95888.25;;;3.92;89.60
68889;BME280;55930;47.412;8.790;2023-02-02T19:14:36;95896.53;;;3.87;90.89
68889;BME280;55930;47.412;8.790;2023-02-02T19:17:57;95908.50;;;3.95;89.07
68889;BME280;55930;47.412;8.790;2023-02-02T19:21:18;95910.38;;;3.95;89.30
68889;BME280;55930;47.412;8.790;2023-02-02T19:24:38;95911.13;;;3.92;89.24
68889;BME280;55930;47.412;8.790;2023-02-02T19:28:08;95916.41;;;3.88;90.62
68889;BME280;55930;47.412;8.790;2023-02-02T19:31:37;95918.66;;;3.90;89.81
68889;BME280;55930;47.412;8.790;2023-02-02T19:34:58;95921.66;;;3.84;90.33
68889;BME280;55930;47.412;8.790;2023-02-02T19:38:24;95912.63;;;3.93;89.33
68889;BME280;55930;47.412;8.790;2023-02-02T19:41:49;95920.88;;;3.95;89.59
68889;BME280;55930;47.412;8.790;2023-02-02T19:45:30;95920.19;;;3.80;91.24
68889;BME280;55930;47.412;8.790;2023-02-02T19:49:43;95923.94;;;3.82;90.91
68889;BME280;55930;47.412;8.790;2023-02-02T19:52:40;95920.94;;;3.80;91.28
68889;BME280;55930;47.412;8.790;2023-02-02T19:56:00;95924.34;;;3.74;92.43
68889;BME280;55930;47.412;8.790;2023-02-02T19:59:24;95926.94;;;3.77;91.85
68889;BME280;55930;47.412;8.790;2023-02-02T20:06:23;95927.69;;;3.78;91.95
68889;BME280;55930;47.412;8.790;2023-02-02T20:09:44;95954.69;;;3.75;92.67
68889;BME280;55930;47.412;8.790;2023-02-02T20:13:11;95952.47;;;3.63;94.57
68889;BME280;55930;47.412;8.790;2023-02-02T20:16:40;95959.97;;;3.61;95.94
68889;BME280;55930;47.412;8.790;2023-02-02T20:20:00;95956.22;;;3.62;95.48
68889;BME280;55930;47.412;8.790;2023-02-02T20:26:52;95962.59;;;3.64;95.64
68889;BME280;55930;47.412;8.790;2023-02-02T20:30:25;95963.38;;;3.47;98.18
68889;BME280;55930;47.412;8.790;2023-02-02T20:33:50;95965.59;;;3.59;95.75
68889;BME280;55930;47.412;8.790;2023-02-02T20:40:31;95965.97;;;3.61;93.81
68889;BME280;55930;47.412;8.790;2023-02-02T20:43:51;95963.69;;;3.70;92.59
68889;BME280;55930;47.412;8.790;2023-02-02T20:47:12;95967.81;;;3.71;93.46
68889;BME280;55930;47.412;8.790;2023-02-02T20:50:32;95966.72;;;3.65;94.17